Time;durP1;ratioP1;P1;durP2;ratioP2;P2;SDS_P1;SDS_P2;PMS_P1;PMS_P2;Temp;Humidity;BMP_temperature;BMP_pressure;BME280_temperature;BME280_humidity;BME280_pressure;Samples;Min_cycle;Max_cycle;Signal;HPM_P1;HPM_P2
2021/06/15 00:01:59;;;;;;;3.67;3.37;;;25.30;85.40;;;;;;5030619;28;20462;-70
2021/06/15 00:04:26;;;;;;;3.27;2.83;;;25.30;85.50;;;;;;5030120;28;20457;-70
2021/06/15 00:06:53;;;;;;;3.10;2.80;;;25.30;85.60;;;;;;5030437;28;20786;-70
2021/06/15 00:09:20;;;;;;;3.00;2.60;;;25.30;85.70;;;;;;5029823;28;20482;-70
2021/06/15 00:11:46;;;;;;;3.07;2.77;;;25.20;85.90;;;;;;5030736;28;20450;-69
2021/06/15 00:14:13;;;;;;;5.27;3.50;;;25.20;86.00;;;;;;5030076;28;20463;-70
2021/06/15 00:16:41;;;;;;;4.20;3.50;;;25.20;86.20;;;;;;5030385;28;20670;-70
2021/06/15 00:19:08;;;;;;;3.23;3.03;;;25.20;86.40;;;;;;5027247;28;20443;-69
2021/06/15 00:21:35;;;;;;;2.97;2.67;;;25.20;86.50;;;;;;5018930;28;20501;-70
2021/06/15 00:24:01;;;;;;;3.17;2.87;;;25.10;86.70;;;;;;5026126;28;20474;-69
2021/06/15 00:26:28;;;;;;;3.40;3.10;;;25.10;86.80;;;;;;5030341;28;20450;-70
2021/06/15 00:28:55;;;;;;;3.33;3.03;;;25.10;87.70;;;;;;5024770;28;20959;-70
2021/06/15 00:31:24;;;;;;;3.60;3.00;;;25.10;87.10;;;;;;5028580;28;20453;-70
2021/06/15 00:33:52;;;;;;;5.63;3.67;;;25.10;87.20;;;;;;5029901;28;20481;-70
2021/06/15 00:36:19;;;;;;;3.30;3.00;;;25.10;87.40;;;;;;5030880;28;20790;-69
2021/06/15 00:38:46;;;;;;;3.47;3.07;;;25.00;87.40;;;;;;5029980;28;20803;-69
2021/06/15 00:41:13;;;;;;;3.40;3.10;;;25.00;87.60;;;;;;5033157;28;20442;-70
2021/06/15 00:43:40;;;;;;;4.20;3.73;;;25.00;87.80;;;;;;5034286;28;20450;-70
2021/06/15 00:46:07;;;;;;;3.00;2.70;;;25.00;87.90;;;;;;5028026;28;20469;-70
2021/06/15 00:48:35;;;;;;;5.93;4.37;;;25.00;88.10;;;;;;5028551;28;20473;-70
2021/06/15 00:51:06;;;;;;;3.73;3.43;;;24.90;88.10;;;;;;5034254;28;20919;-70
2021/06/15 00:53:34;;;;;;;3.30;3.00;;;24.90;88.20;;;;;;5034439;28;20442;-70
2021/06/15 00:56:01;;;;;;;3.13;2.77;;;24.90;88.40;;;;;;5034070;28;20795;-70
2021/06/15 00:58:27;;;;;;;3.70;3.23;;;24.90;88.60;;;;;;5033750;28;20438;-70
2021/06/15 01:00:54;;;;;;;4.10;3.70;;;24.80;88.60;;;;;;5033794;28;20442;-70
2021/06/15 01:03:23;;;;;;;4.60;4.20;;;24.80;88.70;;;;;;5033633;28;20465;-70
2021/06/15 01:05:50;;;;;;;3.33;3.03;;;24.80;88.90;;;;;;5033762;28;20472;-70
2021/06/15 01:08:31;;;;;;;4.40;4.00;;;24.80;89.00;;;;;;5033692;28;20470;-69
2021/06/15 01:11:06;;;;;;;4.30;3.90;;;24.80;89.20;;;;;;5033172;28;20552;-69
2021/06/15 01:13:45;;;;;;;3.10;2.90;;;24.80;89.30;;;;;;5033573;28;20444;-70
2021/06/15 01:16:23;;;;;;;3.40;3.10;;;24.70;89.30;;;;;;5034135;28;20495;-70
2021/06/15 01:18:54;;;;;;;4.10;3.40;;;24.70;89.50;;;;;;5032718;28;20453;-70
2021/06/15 01:21:24;;;;;;;3.80;3.50;;;24.70;89.60;;;;;;5034086;28;20524;-70
2021/06/15 01:24:04;;;;;;;4.07;3.77;;;24.70;89.70;;;;;;5023349;28;20557;-70
2021/06/15 01:26:59;;;;;;;4.37;3.97;;;24.60;89.80;;;;;;5027060;28;20748;-70
2021/06/15 01:29:30;;;;;;;5.50;3.57;;;24.60;90.00;;;;;;5033468;28;20840;-70
2021/06/15 01:32:06;;;;;;;3.73;3.43;;;24.60;90.00;;;;;;5033082;28;20915;-70
2021/06/15 01:34:35;;;;;;;4.07;3.70;;;24.60;90.00;;;;;;5027576;28;21118;-70
2021/06/15 01:37:06;;;;;;;3.50;3.20;;;24.60;90.10;;;;;;5033510;28;20442;-70
2021/06/15 01:39:40;;;;;;;5.20;4.07;;;24.50;90.10;;;;;;5033126;28;20454;-70
2021/06/15 01:42:11;;;;;;;4.97;4.57;;;24.50;90.10;;;;;;5033376;28;20442;-70
2021/06/15 01:44:42;;;;;;;4.03;3.73;;;24.50;90.20;;;;;;5032844;28;20458;-69
2021/06/15 01:47:12;;;;;;;6.30;4.20;;;24.50;90.20;;;;;;5033302;28;20434;-69
2021/06/15 01:49:46;;;;;;;3.90;3.53;;;24.50;90.30;;;;;;5032800;28;20554;-70
2021/06/15 01:52:13;;;;;;;4.83;4.43;;;24.50;90.40;;;;;;5032790;28;20456;-69
2021/06/15 01:54:43;;;;;;;3.77;3.47;;;24.40;90.40;;;;;;5022713;28;20807;-69
2021/06/15 01:57:13;;;;;;;4.20;3.80;;;24.40;90.40;;;;;;5029957;28;20451;-69
2021/06/15 01:59:44;;;;;;;3.93;3.53;;;24.40;90.50;;;;;;5032810;28;20787;-69
2021/06/15 02:02:12;;;;;;;3.43;3.17;;;24.40;90.60;;;;;;5033040;28;21037;-69
2021/06/15 02:04:45;;;;;;;3.40;3.20;;;24.40;90.60;;;;;;5033600;28;20457;-70
2021/06/15 02:07:16;;;;;;;4.13;3.60;;;24.30;90.60;;;;;;5030145;28;20446;-69
2021/06/15 02:09:47;;;;;;;5.70;3.87;;;24.30;90.70;;;;;;5032609;28;20494;-69
2021/06/15 02:12:15;;;;;;;4.03;3.73;;;24.30;90.80;;;;;;5031839;28;20516;-69
2021/06/15 02:14:44;;;;;;;5.63;3.50;;;24.30;90.80;;;;;;5032674;28;20464;-69
2021/06/15 02:17:13;;;;;;;4.43;4.03;;;24.30;90.90;;;;;;5031974;28;20442;-70
2021/06/15 02:19:41;;;;;;;6.87;4.70;;;24.20;91.00;;;;;;5012991;28;20768;-70
2021/06/15 02:22:19;;;;;;;4.20;3.90;;;24.20;91.00;;;;;;5019565;28;20442;-70
2021/06/15 02:24:51;;;;;;;5.83;3.77;;;24.20;91.10;;;;;;5032070;28;20946;-70
2021/06/15 02:27:21;;;;;;;4.03;3.73;;;24.20;91.20;;;;;;5032108;28;20458;-70
2021/06/15 02:29:52;;;;;;;4.03;3.40;;;24.20;91.30;;;;;;5032481;28;20481;-70
2021/06/15 02:32:23;;;;;;;4.70;4.27;;;24.10;91.30;;;;;;5032577;28;20438;-70
2021/06/15 02:34:51;;;;;;;4.27;3.87;;;24.10;91.40;;;;;;5031696;28;20494;-70
2021/06/15 02:37:24;;;;;;;4.10;3.80;;;24.10;91.50;;;;;;5031780;28;21005;-70
2021/06/15 02:39:52;;;;;;;5.03;4.53;;;24.00;91.50;;;;;;5032289;28;20461;-70
2021/06/15 02:42:20;;;;;;;4.23;3.83;;;24.00;91.60;;;;;;5032761;28;20442;-69
2021/06/15 02:44:50;;;;;;;4.07;3.77;;;24.00;91.70;;;;;;5031755;28;20965;-69
2021/06/15 02:47:18;;;;;;;4.47;4.03;;;24.00;91.80;;;;;;5032056;28;20446;-70
2021/06/15 02:49:49;;;;;;;5.20;4.70;;;24.00;91.90;;;;;;5025982;28;20642;-69
2021/06/15 02:52:21;;;;;;;4.23;3.83;;;23.90;91.90;;;;;;5032307;28;20783;-69
2021/06/15 02:54:54;;;;;;;4.37;4.07;;;23.90;92.40;;;;;;5032079;28;20453;-69
2021/06/15 02:57:22;;;;;;;5.17;4.67;;;23.90;92.10;;;;;;5031124;28;20450;-69
2021/06/15 02:59:51;;;;;;;3.77;3.33;;;23.90;92.20;;;;;;5031371;28;20445;-69
2021/06/15 03:02:17;;;;;;;4.83;4.00;;;23.90;92.30;;;;;;5032280;28;20464;-69
2021/06/15 03:04:46;;;;;;;4.50;4.17;;;23.80;92.30;;;;;;5030634;28;20787;-69
2021/06/15 03:07:13;;;;;;;4.47;4.03;;;23.80;92.40;;;;;;5028898;28;20458;-70
2021/06/15 03:09:40;;;;;;;4.40;4.00;;;23.80;92.50;;;;;;5011732;28;20479;-69
2021/06/15 03:12:11;;;;;;;7.30;4.47;;;23.80;92.70;;;;;;5011873;28;20457;-69
2021/06/15 03:14:41;;;;;;;5.97;3.50;;;23.80;92.70;;;;;;5030431;28;20469;-69
2021/06/15 03:17:11;;;;;;;4.10;3.80;;;23.80;92.80;;;;;;5031062;28;20442;-70
2021/06/15 03:19:44;;;;;;;4.67;4.27;;;23.70;92.80;;;;;;5031334;28;20778;-70
2021/06/15 03:22:13;;;;;;;5.10;4.33;;;23.70;92.90;;;;;;5030829;28;20473;-70
2021/06/15 03:24:44;;;;;;;4.17;3.77;;;23.70;93.00;;;;;;5031488;28;20446;-69
2021/06/15 03:27:16;;;;;;;4.10;3.80;;;23.70;93.00;;;;;;5030975;28;20791;-69
2021/06/15 03:29:43;;;;;;;3.43;3.13;;;23.70;93.10;;;;;;5030637;28;20958;-69
2021/06/15 03:32:13;;;;;;;5.90;3.83;;;23.70;93.20;;;;;;5031256;28;20449;-69
2021/06/15 03:34:44;;;;;;;4.23;3.93;;;23.60;93.20;;;;;;5031107;28;20478;-69
2021/06/15 03:37:15;;;;;;;4.53;4.20;;;23.60;93.30;;;;;;5030853;28;20437;-69
2021/06/15 03:39:45;;;;;;;5.57;3.73;;;23.60;93.40;;;;;;5031152;28;20458;-70
2021/06/15 03:42:19;;;;;;;4.10;3.70;;;23.60;93.40;;;;;;5031248;28;20472;-70
2021/06/15 03:44:49;;;;;;;4.73;3.87;;;23.60;93.50;;;;;;5030802;28;20968;-69
2021/06/15 03:47:18;;;;;;;6.37;4.40;;;23.50;93.50;;;;;;5031059;28;20449;-69
2021/06/15 03:49:47;;;;;;;4.45;4.15;;;23.50;93.60;;;;;;5031339;28;20478;-69
2021/06/15 03:52:14;;;;;;;4.63;4.10;;;23.50;93.70;;;;;;5026597;28;20195;-69
2021/06/15 03:54:44;;;;;;;4.60;4.10;;;23.50;93.80;;;;;;5031763;28;20446;-69
2021/06/15 03:57:12;;;;;;;5.03;3.57;;;23.50;93.80;;;;;;5030279;28;20461;-69
2021/06/15 03:59:40;;;;;;;4.80;3.80;;;23.50;93.90;;;;;;5030355;28;20446;-69
2021/06/15 04:02:07;;;;;;;3.90;3.60;;;23.50;93.90;;;;;;5031261;28;20446;-69
2021/06/15 04:04:37;;;;;;;4.20;3.80;;;23.50;94.00;;;;;;5023861;28;20473;-69
2021/06/15 04:07:06;;;;;;;3.60;3.30;;;23.40;94.00;;;;;;5031190;28;20450;-69
2021/06/15 04:09:37;;;;;;;5.20;4.60;;;23.40;94.00;;;;;;5030966;28;20482;-69
2021/06/15 04:12:05;;;;;;;4.43;3.93;;;23.40;94.10;;;;;;5029822;28;20460;-69
2021/06/15 04:14:35;;;;;;;4.03;3.63;;;23.40;94.10;;;;;;5030184;28;20446;-69
2021/06/15 04:17:04;;;;;;;3.90;3.63;;;23.40;94.20;;;;;;5034728;28;20458;-69
2021/06/15 04:19:33;;;;;;;4.80;4.40;;;23.40;94.20;;;;;;5021156;28;20206;-69
2021/06/15 04:22:03;;;;;;;3.95;3.65;;;23.40;94.30;;;;;;5020170;28;20449;-69
2021/06/15 04:24:32;;;;;;;4.27;3.87;;;23.40;94.40;;;;;;5034532;28;20640;-69
2021/06/15 04:26:59;;;;;;;4.47;3.83;;;23.40;94.40;;;;;;5033917;28;20988;-69
2021/06/15 04:29:27;;;;;;;4.37;3.90;;;23.40;94.40;;;;;;5034820;28;20482;-69
2021/06/15 04:31:59;;;;;;;4.25;3.95;;;23.30;94.40;;;;;;5034022;28;20774;-68
2021/06/15 04:34:27;;;;;;;4.07;3.77;;;23.30;94.50;;;;;;5034329;28;20226;-68
2021/06/15 04:36:58;;;;;;;3.43;3.23;;;23.30;94.50;;;;;;5028223;28;20480;-70
2021/06/15 04:39:32;;;;;;;4.90;3.90;;;23.30;94.50;;;;;;5034666;28;20491;-68
2021/06/15 04:42:00;;;;;;;5.30;4.30;;;23.30;94.60;;;;;;5034199;28;20446;-70
2021/06/15 04:44:32;;;;;;;9.83;4.20;;;23.30;94.60;;;;;;5023729;28;20449;-68
2021/06/15 04:47:02;;;;;;;5.17;3.50;;;23.30;94.70;;;;;;5030246;28;20438;-68
2021/06/15 04:49:32;;;;;;;3.77;3.40;;;23.30;94.70;;;;;;5034380;28;20769;-69
2021/06/15 04:52:02;;;;;;;3.93;3.57;;;23.30;94.80;;;;;;5034733;28;20453;-68
2021/06/15 04:54:34;;;;;;;5.90;4.33;;;23.30;94.80;;;;;;5034565;28;20446;-68
2021/06/15 04:57:03;;;;;;;4.10;3.70;;;23.30;94.80;;;;;;5034201;28;20457;-69
2021/06/15 04:59:31;;;;;;;3.87;3.50;;;23.30;94.80;;;;;;5031702;28;20785;-69
2021/06/15 05:01:59;;;;;;;3.63;3.33;;;23.30;94.80;;;;;;5022145;28;20787;-70
2021/06/15 05:04:26;;;;;;;4.88;3.55;;;23.30;94.90;;;;;;5028518;28;20900;-69
2021/06/15 05:06:54;;;;;;;3.37;3.10;;;23.30;94.90;;;;;;5027840;28;20199;-69
2021/06/15 05:09:25;;;;;;;3.83;3.50;;;23.30;95.00;;;;;;5030357;28;20465;-69
2021/06/15 05:11:55;;;;;;;4.55;3.65;;;23.30;95.10;;;;;;5031918;28;20541;-69
2021/06/15 05:14:25;;;;;;;4.57;4.18;;;23.30;95.20;;;;;;5033404;28;20191;-68
2021/06/15 05:16:53;;;;;;;6.30;5.37;;;23.30;95.50;;;;;;5032528;28;20588;-68
2021/06/15 05:19:20;;;;;;;5.75;4.82;;;23.30;95.50;;;;;;5028407;28;20453;-69
2021/06/15 05:21:53;;;;;;;5.23;4.60;;;23.30;95.70;;;;;;5033356;28;20562;-68
2021/06/15 05:24:31;;;;;;;5.10;4.70;;;23.30;96.10;;;;;;5024206;28;20469;-69
2021/06/15 05:26:59;;;;;;;7.57;4.85;;;23.30;96.40;;;;;;5027741;28;20454;-69
2021/06/15 05:29:26;;;;;;;6.80;6.10;;;23.40;96.40;;;;;;5030473;28;20204;-69
2021/06/15 05:31:53;;;;;;;9.43;5.93;;;23.40;96.50;;;;;;5032500;28;20457;-69
2021/06/15 05:34:19;;;;;;;7.03;5.67;;;23.50;96.50;;;;;;5032712;28;20469;-69
2021/06/15 05:36:46;;;;;;;5.03;4.47;;;23.50;96.00;;;;;;5030425;28;20461;-69
2021/06/15 05:39:13;;;;;;;5.70;5.20;;;23.60;96.10;;;;;;5030589;28;20543;-70
2021/06/15 05:41:40;;;;;;;4.30;3.97;;;23.70;96.00;;;;;;5028335;28;20447;-70
2021/06/15 05:44:08;;;;;;;6.90;4.73;;;23.80;95.90;;;;;;5032619;28;20802;-69
2021/06/15 05:46:35;;;;;;;5.83;5.23;;;23.90;95.60;;;;;;5032766;28;20453;-69
2021/06/15 05:49:01;;;;;;;4.80;4.20;;;24.00;95.40;;;;;;5033115;28;20462;-69
2021/06/15 05:51:28;;;;;;;5.20;4.80;;;24.10;95.50;;;;;;5031490;28;20977;-70
2021/06/15 05:53:59;;;;;;;9.20;5.60;;;24.10;95.00;;;;;;5032504;28;20497;-69
2021/06/15 05:56:25;;;;;;;8.83;5.63;;;24.20;94.90;;;;;;5031756;28;20512;-69
2021/06/15 05:58:52;;;;;;;5.97;4.70;;;24.10;94.80;;;;;;5032154;28;20466;-69
2021/06/15 06:01:20;;;;;;;6.50;4.50;;;24.20;95.00;;;;;;5031293;28;20834;-69
2021/06/15 06:03:53;;;;;;;7.53;5.27;;;24.20;94.90;;;;;;5033289;28;20458;-69
2021/06/15 06:09:11;;;;;;;7.27;5.60;;;24.20;94.90;;;;;;5030932;28;20445;-70
2021/06/15 06:11:37;;;;;;;7.27;4.57;;;24.30;94.80;;;;;;5031035;28;20478;-69
2021/06/15 06:14:04;;;;;;;5.80;5.30;;;24.30;94.60;;;;;;5032724;28;20461;-69
2021/06/15 06:16:33;;;;;;;9.33;4.87;;;24.40;94.40;;;;;;5031335;28;20481;-69
2021/06/15 06:19:01;;;;;;;7.20;4.73;;;24.50;94.10;;;;;;5032136;28;20583;-69
2021/06/15 06:21:30;;;;;;;5.53;4.50;;;24.60;94.20;;;;;;5025474;28;20473;-70
2021/06/15 06:23:57;;;;;;;9.27;5.30;;;24.80;93.60;;;;;;5031713;28;20462;-70
2021/06/15 06:26:23;;;;;;;33.67;7.60;;;24.80;93.20;;;;;;5031322;28;20949;-69
2021/06/15 06:28:50;;;;;;;9.93;5.83;;;24.80;93.20;;;;;;5031708;28;20461;-70
2021/06/15 06:31:17;;;;;;;10.63;5.90;;;24.70;93.50;;;;;;5032292;28;20496;-70
2021/06/15 06:33:45;;;;;;;10.93;7.10;;;24.60;93.70;;;;;;5031531;28;20497;-70
2021/06/15 06:36:12;;;;;;;26.13;9.67;;;24.50;94.10;;;;;;5024193;28;21159;-70
2021/06/15 06:38:39;;;;;;;21.83;9.80;;;24.40;94.50;;;;;;5031347;28;20472;-70
2021/06/15 06:41:05;;;;;;;15.73;7.63;;;24.30;95.10;;;;;;5030114;28;20450;-69
2021/06/15 06:43:32;;;;;;;12.17;7.70;;;24.20;95.20;;;;;;5030670;28;20454;-69
2021/06/15 06:45:59;;;;;;;16.10;6.87;;;24.10;95.60;;;;;;5031399;28;20476;-69
2021/06/15 06:48:26;;;;;;;18.50;9.30;;;24.20;95.70;;;;;;5031779;28;20466;-69
2021/06/15 06:50:54;;;;;;;9.80;6.77;;;24.20;95.70;;;;;;5030416;28;20509;-69
2021/06/15 06:53:21;;;;;;;19.17;7.63;;;24.30;95.30;;;;;;5030226;28;20453;-69
2021/06/15 06:55:47;;;;;;;9.93;7.87;;;24.40;95.20;;;;;;5029475;28;20455;-69
2021/06/15 06:58:14;;;;;;;14.77;8.10;;;24.50;95.30;;;;;;5030330;28;20942;-73
2021/06/15 07:00:41;;;;;;;11.33;7.80;;;24.50;95.30;;;;;;5029552;28;20458;-69
2021/06/15 07:03:08;;;;;;;11.60;7.20;;;24.50;95.20;;;;;;5031218;28;20469;-69
2021/06/15 07:05:34;;;;;;;13.97;5.90;;;24.50;95.20;;;;;;5031119;28;20469;-69
2021/06/15 07:08:02;;;;;;;12.63;8.07;;;24.50;95.10;;;;;;5030161;28;20473;-68
2021/06/15 07:10:29;;;;;;;10.47;7.03;;;24.50;95.20;;;;;;5031073;28;20504;-69
2021/06/15 07:12:56;;;;;;;8.87;6.10;;;24.60;95.10;;;;;;5029266;28;20458;-69
2021/06/15 07:15:23;;;;;;;10.97;7.53;;;24.70;94.80;;;;;;5031464;28;20454;-69
2021/06/15 07:17:50;;;;;;;9.33;6.17;;;24.80;94.60;;;;;;5031078;28;20457;-69
2021/06/15 07:20:16;;;;;;;11.23;6.57;;;24.90;94.20;;;;;;5027561;28;20494;-68
2021/06/15 07:22:43;;;;;;;15.30;7.63;;;25.00;93.80;;;;;;5024461;28;20454;-69
2021/06/15 07:25:13;;;;;;;10.50;7.60;;;25.10;93.70;;;;;;5026204;28;20760;-69
2021/06/15 07:27:40;;;;;;;7.57;6.40;;;25.20;93.30;;;;;;5025514;28;20450;-69
2021/06/15 07:30:07;;;;;;;9.77;6.67;;;25.40;92.90;;;;;;5025936;28;20450;-68
2021/06/15 07:32:34;;;;;;;11.10;6.80;;;25.50;92.60;;;;;;5029153;28;20481;-69
2021/06/15 07:35:01;;;;;;;16.00;12.33;;;25.60;92.20;;;;;;5029301;28;20487;-69
2021/06/15 07:37:28;;;;;;;11.80;10.50;;;25.60;94.00;;;;;;5029004;28;20450;-69
2021/06/15 07:39:55;;;;;;;10.10;8.07;;;25.60;93.30;;;;;;5027550;28;20455;-69
2021/06/15 07:42:25;;;;;;;9.57;8.57;;;25.60;92.90;;;;;;5030639;28;20455;-70
2021/06/15 07:44:52;;;;;;;8.60;7.80;;;25.50;93.00;;;;;;5029634;28;20508;-69
2021/06/15 07:47:19;;;;;;;8.93;7.80;;;25.50;93.00;;;;;;5030314;28;20476;-69
2021/06/15 07:49:45;;;;;;;9.90;6.97;;;25.60;93.10;;;;;;5030739;28;20451;-70
2021/06/15 07:52:12;;;;;;;10.70;6.37;;;25.70;92.90;;;;;;5026896;28;20875;-69
2021/06/15 07:54:41;;;;;;;7.23;5.77;;;25.80;92.30;;;;;;5027804;28;20461;-69
2021/06/15 07:57:09;;;;;;;7.17;6.40;;;25.90;92.00;;;;;;5028721;28;20523;-69
2021/06/15 07:59:37;;;;;;;9.07;7.50;;;26.00;91.80;;;;;;5030492;28;20470;-69
2021/06/15 08:02:04;;;;;;;7.33;6.60;;;26.00;91.60;;;;;;5030767;28;20464;-70
2021/06/15 08:04:31;;;;;;;8.90;7.53;;;26.00;91.40;;;;;;5016862;28;20946;-70
2021/06/15 08:06:58;;;;;;;7.83;6.70;;;26.00;91.50;;;;;;5036254;28;20822;-69
2021/06/15 08:09:25;;;;;;;7.73;6.93;;;25.90;91.50;;;;;;5029091;28;20562;-69
2021/06/15 08:11:52;;;;;;;7.57;6.80;;;25.90;91.70;;;;;;5025035;28;20481;-69
2021/06/15 08:14:19;;;;;;;7.37;5.60;;;25.80;92.00;;;;;;5030725;28;20525;-68
2021/06/15 08:16:47;;;;;;;7.13;6.50;;;25.70;92.10;;;;;;5030391;28;20468;-68
2021/06/15 08:19:13;;;;;;;27.50;9.07;;;25.60;92.40;;;;;;5030624;28;20860;-68
2021/06/15 08:21:40;;;;;;;11.30;6.83;;;25.60;92.50;;;;;;5029819;28;20454;-69
2021/06/15 08:24:09;;;;;;;26.57;10.03;;;25.50;92.70;;;;;;5030319;28;20446;-68
2021/06/15 08:26:36;;;;;;;68.10;16.33;;;25.50;92.80;;;;;;5026290;28;20462;-69
2021/06/15 08:29:03;;;;;;;39.00;17.00;;;25.40;93.00;;;;;;5027747;28;20458;-69
2021/06/15 08:31:29;;;;;;;29.33;14.17;;;25.20;95.00;;;;;;5029532;28;20479;-69
2021/06/15 08:33:57;;;;;;;20.10;12.10;;;25.20;94.90;;;;;;5025873;28;20547;-70
2021/06/15 08:36:25;;;;;;;16.20;9.57;;;25.20;94.80;;;;;;5025195;28;20465;-69
2021/06/15 08:38:52;;;;;;;20.03;10.70;;;25.20;94.60;;;;;;5029646;28;20476;-70
2021/06/15 08:41:19;;;;;;;21.30;7.83;;;25.20;94.50;;;;;;5028631;28;20458;-69
2021/06/15 08:43:46;;;;;;;15.30;8.23;;;25.30;94.50;;;;;;5028203;28;20466;-70
2021/06/15 08:46:13;;;;;;;14.27;8.97;;;25.30;94.30;;;;;;5031094;28;20477;-69
2021/06/15 08:48:40;;;;;;;12.80;7.87;;;25.40;94.30;;;;;;5030221;28;20978;-69
2021/06/15 08:51:08;;;;;;;20.50;8.83;;;25.40;94.00;;;;;;5029189;28;20486;-69
2021/06/15 08:53:35;;;;;;;16.77;8.50;;;25.50;94.00;;;;;;5026653;28;20943;-69
2021/06/15 08:56:11;;;;;;;12.10;7.33;;;25.50;93.90;;;;;;5034641;28;20745;-70
2021/06/15 08:58:46;;;;;;;13.70;8.13;;;25.60;93.80;;;;;;5029633;28;20470;-70
2021/06/15 09:01:13;;;;;;;12.63;6.67;;;25.60;93.60;;;;;;5031443;28;20949;-70
2021/06/15 09:03:40;;;;;;;11.70;6.70;;;25.60;93.50;;;;;;5034028;28;20461;-70
2021/06/15 09:06:09;;;;;;;7.93;5.93;;;25.70;93.20;;;;;;5033705;28;20782;-70
2021/06/15 09:08:52;;;;;;;10.90;6.80;;;25.80;92.90;;;;;;5016061;28;20959;-70
2021/06/15 09:11:19;;;;;;;9.60;7.03;;;25.90;92.80;;;;;;5022314;28;20552;-70
2021/06/15 09:13:47;;;;;;;8.80;5.67;;;26.00;92.50;;;;;;5029331;28;20464;-70
2021/06/15 09:16:26;;;;;;;7.83;5.70;;;26.10;92.10;;;;;;5033431;28;20459;-70
2021/06/15 09:18:55;;;;;;;8.40;7.40;;;26.20;91.90;;;;;;5033199;28;20448;-70
2021/06/15 09:21:40;;;;;;;9.60;5.13;;;26.30;91.60;;;;;;5031595;28;20451;-70
2021/06/15 09:24:09;;;;;;;9.43;6.73;;;26.30;91.30;;;;;;5033138;28;20939;-70
2021/06/15 09:26:52;;;;;;;7.10;5.17;;;26.40;91.10;;;;;;5032621;28;20455;-70
2021/06/15 09:29:20;;;;;;;6.70;5.60;;;26.40;91.10;;;;;;5030921;28;20469;-70
2021/06/15 09:31:54;;;;;;;8.00;5.93;;;26.40;91.30;;;;;;5031619;28;20625;-70
2021/06/15 09:34:20;;;;;;;9.23;5.07;;;26.50;90.90;;;;;;5027536;28;20817;-69
2021/06/15 09:36:48;;;;;;;5.80;5.20;;;26.50;90.80;;;;;;5030601;28;20461;-70
2021/06/15 09:39:15;;;;;;;6.10;5.23;;;26.50;90.70;;;;;;5029580;28;20513;-70
2021/06/15 09:41:44;;;;;;;8.70;5.63;;;26.60;90.60;;;;;;5031065;28;20509;-69
2021/06/15 09:44:15;;;;;;;5.20;4.70;;;26.60;90.40;;;;;;5026944;28;20860;-69
2021/06/15 09:46:43;;;;;;;5.30;4.80;;;26.60;90.20;;;;;;5032420;28;20456;-70
2021/06/15 09:49:12;;;;;;;6.67;5.37;;;26.70;90.10;;;;;;5032989;28;20546;-70
2021/06/15 09:51:39;;;;;;;5.40;4.90;;;26.60;90.10;;;;;;5032203;28;21022;-70
2021/06/15 09:54:07;;;;;;;5.67;5.07;;;26.70;90.00;;;;;;5032881;28;20538;-70
2021/06/15 09:56:34;;;;;;;5.57;4.80;;;26.70;90.00;;;;;;5027491;28;20469;-70
2021/06/15 09:59:01;;;;;;;5.03;4.47;;;26.70;90.00;;;;;;5028817;28;20533;-70
2021/06/15 10:01:29;;;;;;;6.90;4.50;;;26.70;90.00;;;;;;5032936;28;20460;-69
2021/06/15 10:04:15;;;;;;;4.83;4.43;;;26.70;90.00;;;;;;5034462;28;20541;-69
2021/06/15 10:06:44;;;;;;;5.40;4.70;;;26.70;90.00;;;;;;5033298;28;20468;-70
2021/06/15 10:09:12;;;;;;;6.27;4.33;;;26.70;90.00;;;;;;5034028;28;20764;-69
2021/06/15 10:11:45;;;;;;;6.87;5.30;;;26.70;89.70;;;;;;5033807;28;20480;-69
2021/06/15 10:14:12;;;;;;;6.10;5.30;;;26.70;89.60;;;;;;5031340;28;20460;-69
2021/06/15 10:16:39;;;;;;;6.23;5.30;;;26.70;89.70;;;;;;5027305;28;20465;-70
2021/06/15 10:19:06;;;;;;;4.53;4.10;;;26.60;89.80;;;;;;5033146;28;20465;-70
2021/06/15 10:21:34;;;;;;;7.10;5.30;;;26.70;89.70;;;;;;5032093;28;20507;-70
2021/06/15 10:24:03;;;;;;;7.13;5.30;;;26.70;89.70;;;;;;5032405;28;20559;-70
2021/06/15 10:26:32;;;;;;;6.27;5.67;;;26.60;89.40;;;;;;5031447;28;20611;-70
2021/06/15 10:28:58;;;;;;;5.93;4.47;;;26.60;89.50;;;;;;5027848;28;20475;-69
2021/06/15 10:31:31;;;;;;;4.63;4.23;;;26.60;89.80;;;;;;5030330;28;20486;-69
2021/06/15 10:33:59;;;;;;;4.57;4.17;;;26.60;89.70;;;;;;5024405;28;20484;-69
2021/06/15 10:36:38;;;;;;;5.17;4.70;;;26.60;89.80;;;;;;5025343;28;20752;-69
2021/06/15 10:39:06;;;;;;;4.03;3.70;;;26.60;89.50;;;;;;5030916;28;20465;-70
2021/06/15 10:41:34;;;;;;;8.73;5.13;;;26.50;89.00;;;;;;5028126;28;20980;-70
2021/06/15 10:44:02;;;;;;;5.13;4.70;;;26.50;89.40;;;;;;5027034;28;20464;-69
2021/06/15 10:46:36;;;;;;;4.70;4.20;;;26.50;89.60;;;;;;5025059;28;20461;-70
2021/06/15 10:49:07;;;;;;;5.90;4.60;;;26.50;89.40;;;;;;5027110;28;20542;-69
2021/06/15 10:51:37;;;;;;;4.67;4.27;;;26.50;89.50;;;;;;5024636;28;20542;-69
2021/06/15 10:54:28;;;;;;;4.80;4.37;;;26.50;89.40;;;;;;5031742;28;20489;-69
2021/06/15 10:57:17;;;;;;;5.50;3.93;;;26.50;89.40;;;;;;5027720;28;20448;-70
2021/06/15 11:00:18;;;;;;;5.60;3.97;;;26.50;89.60;;;;;;5029097;28;20460;-70
2021/06/15 11:03:18;;;;;;;6.00;4.27;;;26.40;89.30;;;;;;5028453;28;20925;-69
2021/06/15 11:05:48;;;;;;;3.97;3.30;;;26.50;88.80;;;;;;5029146;28;20464;-69
2021/06/15 11:08:20;;;;;;;4.20;3.80;;;26.50;88.70;;;;;;5028984;28;20463;-69
2021/06/15 11:10:52;;;;;;;4.77;3.70;;;26.50;88.50;;;;;;5026667;28;20586;-71
2021/06/15 11:13:40;;;;;;;4.03;3.63;;;26.50;88.00;;;;;;5025074;28;20473;-69
2021/06/15 11:16:06;;;;;;;3.40;3.10;;;26.50;88.20;;;;;;5028964;28;20513;-70
2021/06/15 11:18:33;;;;;;;4.93;4.43;;;26.50;88.40;;;;;;5029659;28;20464;-70
2021/06/15 11:21:16;;;;;;;6.40;5.90;;;26.60;88.30;;;;;;5033711;28;20452;-69
2021/06/15 11:23:43;;;;;;;4.27;3.83;;;26.60;88.10;;;;;;5031198;28;20490;-70
2021/06/15 11:26:14;;;;;;;7.23;5.70;;;26.60;87.90;;;;;;5030374;28;20437;-69
2021/06/15 11:28:58;;;;;;;5.50;3.93;;;26.60;88.10;;;;;;5030450;28;20517;-69
2021/06/15 11:31:30;;;;;;;3.33;3.13;;;26.50;88.00;;;;;;5013192;28;20425;-70
2021/06/15 11:34:14;;;;;;;4.90;4.03;;;26.50;88.00;;;;;;5031027;28;20495;-70
2021/06/15 11:36:44;;;;;;;5.77;3.67;;;26.50;88.10;;;;;;5030509;28;20558;-69
2021/06/15 11:39:35;;;;;;;3.80;3.50;;;26.50;88.10;;;;;;5022874;28;20503;-69
2021/06/15 11:42:21;;;;;;;4.13;3.73;;;26.50;88.60;;;;;;5031991;28;20416;-70
2021/06/15 11:44:59;;;;;;;5.07;3.53;;;26.40;88.30;;;;;;5030113;28;20866;-70
2021/06/15 11:47:28;;;;;;;5.87;3.40;;;26.50;88.00;;;;;;5031286;28;21153;-70
2021/06/15 11:50:26;;;;;;;5.93;3.73;;;26.50;87.10;;;;;;5015115;28;20455;-69
2021/06/15 11:52:58;;;;;;;3.93;3.53;;;26.50;86.70;;;;;;5030812;28;20484;-70
2021/06/15 11:55:30;;;;;;;3.17;2.87;;;26.50;86.90;;;;;;5030746;28;20457;-69
2021/06/15 11:58:01;;;;;;;3.17;2.97;;;26.50;87.00;;;;;;5031882;28;20532;-69
2021/06/15 12:00:31;;;;;;;3.47;2.40;;;26.50;86.50;;;;;;5031751;28;20436;-69
2021/06/15 12:03:05;;;;;;;3.00;2.50;;;26.50;85.30;;;;;;5030595;28;20932;-68
2021/06/15 12:05:32;;;;;;;3.00;2.60;;;26.50;85.20;;;;;;5031510;28;20448;-69
2021/06/15 12:07:59;;;;;;;2.93;2.57;;;26.50;84.40;;;;;;5026937;28;20473;-70
2021/06/15 12:10:27;;;;;;;4.00;3.07;;;26.50;84.80;;;;;;5034318;28;20460;-69
2021/06/15 12:13:09;;;;;;;2.37;2.17;;;26.50;84.70;;;;;;5031508;28;20496;-69
2021/06/15 12:15:53;;;;;;;3.67;2.10;;;26.50;84.20;;;;;;5026869;28;20642;-70
2021/06/15 12:18:43;;;;;;;2.33;2.13;;;26.50;83.70;;;;;;5029840;28;20836;-69
2021/06/15 12:21:13;;;;;;;2.67;2.43;;;26.50;82.60;;;;;;5031120;28;20438;-69
2021/06/15 12:23:42;;;;;;;2.63;2.07;;;26.50;83.30;;;;;;5030937;28;20452;-69
2021/06/15 12:26:12;;;;;;;3.73;1.93;;;26.40;82.40;;;;;;5012323;28;20497;-70
2021/06/15 12:28:40;;;;;;;2.33;2.10;;;26.40;82.60;;;;;;5027516;28;20454;-69
2021/06/15 12:31:11;;;;;;;2.90;2.50;;;26.40;83.10;;;;;;5029985;28;20440;-69
2021/06/15 12:33:39;;;;;;;6.70;2.40;;;26.40;83.10;;;;;;5030193;28;20492;-69
2021/06/15 12:36:08;;;;;;;2.53;2.20;;;26.40;82.20;;;;;;5031834;28;20955;-69
2021/06/15 12:38:35;;;;;;;2.40;2.00;;;26.40;82.30;;;;;;5034428;28;20509;-69
2021/06/15 12:41:05;;;;;;;2.50;2.30;;;26.40;81.80;;;;;;5034811;28;20459;-70
2021/06/15 12:43:31;;;;;;;5.03;2.30;;;26.40;82.60;;;;;;5033714;28;20539;-70
2021/06/15 12:46:14;;;;;;;3.70;2.40;;;26.30;81.50;;;;;;5032371;28;20525;-70
2021/06/15 12:48:49;;;;;;;2.80;2.10;;;26.30;81.90;;;;;;5028647;28;20464;-70
2021/06/15 12:51:17;;;;;;;5.87;1.90;;;26.40;81.90;;;;;;5023314;28;20444;-70
2021/06/15 12:53:45;;;;;;;3.23;2.00;;;26.40;82.50;;;;;;5032356;28;20476;-70
2021/06/15 12:56:31;;;;;;;3.53;2.50;;;26.40;82.20;;;;;;5034537;28;20448;-69
2021/06/15 12:58:59;;;;;;;3.07;1.90;;;26.40;81.50;;;;;;5034588;28;20454;-69
2021/06/15 13:01:36;;;;;;;2.13;1.93;;;26.40;81.60;;;;;;5034788;28;20455;-69
2021/06/15 13:04:17;;;;;;;2.77;1.90;;;26.40;80.90;;;;;;5033597;28;20928;-69